Time;durP1;ratioP1;P1;durP2;ratioP2;P2;SDS_P1;SDS_P2;PMS_P1;PMS_P2;Temp;Humidity;BMP_temperature;BMP_pressure;BME280_temperature;BME280_humidity;BME280_pressure;Samples;Min_cycle;Max_cycle;Signal;HPM_P1;HPM_P2
2021/09/03 00:05:32;;;;;;;4.30;3.53;;;;;;;7.36;100.00;101102.84;20789186;28;20230;-64
2021/09/03 00:15:36;;;;;;;5.63;3.20;;;;;;;7.16;100.00;101091.16;20810418;28;20236;-62
2021/09/03 00:25:39;;;;;;;3.20;2.90;;;;;;;7.07;100.00;101090.66;20795447;28;20337;-64
2021/09/03 00:35:43;;;;;;;3.23;2.80;;;;;;;7.05;100.00;101087.19;20803187;28;20240;-67
2021/09/03 00:45:45;;;;;;;5.30;4.03;;;;;;;7.11;100.00;101071.91;20840705;28;20238;-66
2021/09/03 00:55:50;;;;;;;6.60;4.60;;;;;;;7.03;100.00;101075.75;20876762;28;20230;-62
2021/09/03 01:05:52;;;;;;;4.83;3.70;;;;;;;6.91;100.00;101069.13;20884052;28;20331;-62
2021/09/03 01:15:56;;;;;;;3.03;2.60;;;;;;;6.84;100.00;101073.81;20817001;28;20236;-64
2021/09/03 01:26:03;;;;;;;3.80;3.10;;;;;;;6.55;100.00;101049.25;20907697;28;20237;-62
2021/09/03 01:36:05;;;;;;;3.30;2.90;;;;;;;6.55;100.00;101050.13;20883744;28;20294;-65
2021/09/03 01:46:09;;;;;;;4.23;3.60;;;;;;;6.58;100.00;101044.72;20906194;28;20235;-65
2021/09/03 01:56:12;;;;;;;5.03;3.60;;;;;;;6.46;100.00;101034.53;20881581;28;20228;-65
2021/09/03 02:16:14;;;;;;;5.63;4.70;;;;;;;6.53;100.00;101006.88;20970084;27;20558;-62
2021/09/03 02:26:16;;;;;;;7.20;5.23;;;;;;;6.52;100.00;101007.78;20950505;28;20221;-64
2021/09/03 02:36:20;;;;;;;6.87;4.57;;;;;;;6.40;100.00;100997.66;20977636;28;20594;-66
2021/09/03 02:56:27;;;;;;;6.53;4.70;;;;;;;6.33;100.00;100985.53;21083792;27;1717362;-63
2021/09/03 03:06:30;;;;;;;7.87;5.50;;;;;;;6.30;100.00;100975.91;21108751;28;20831;-64
2021/09/03 03:16:33;;;;;;;6.90;5.07;;;;;;;6.34;100.00;100960.75;21131137;28;20222;-65
2021/09/03 03:26:36;;;;;;;7.17;6.03;;;;;;;6.28;100.00;100955.72;21112229;28;20233;-63
2021/09/03 03:36:39;;;;;;;6.73;5.20;;;;;;;6.07;100.00;100926.38;21124772;28;20226;-64
2021/09/03 03:46:42;;;;;;;4.90;3.87;;;;;;;5.97;100.00;100924.13;21118073;28;20229;-64
2021/09/03 03:56:46;;;;;;;9.90;6.33;;;;;;;6.27;100.00;100916.88;21114055;28;20227;-65
2021/09/03 04:06:48;;;;;;;9.50;6.40;;;;;;;6.57;100.00;100920.13;21072280;28;20234;-65
2021/09/03 04:16:52;;;;;;;7.47;5.97;;;;;;;7.05;100.00;100910.25;21053139;28;20266;-64
2021/09/03 04:26:56;;;;;;;6.23;5.63;;;;;;;8.14;100.00;100904.69;21110160;28;20242;-63
2021/09/03 04:37:00;;;;;;;6.33;5.47;;;;;;;8.24;100.00;100879.41;21044428;28;20928;-63
2021/09/03 04:47:03;;;;;;;7.53;6.07;;;;;;;8.29;100.00;100895.16;21150434;28;20244;-64
2021/09/03 04:57:06;;;;;;;6.73;5.80;;;;;;;8.57;100.00;100884.16;21130843;28;20752;-63
2021/09/03 05:07:11;;;;;;;6.30;5.70;;;;;;;8.96;100.00;100884.88;21145377;28;20351;-63
2021/09/03 05:17:15;;;;;;;5.30;4.80;;;;;;;9.35;100.00;100878.53;20963958;28;20242;-66
2021/09/03 05:27:19;;;;;;;5.70;5.20;;;;;;;9.65;100.00;100870.81;20991450;28;20257;-66
2021/09/03 05:37:23;;;;;;;7.67;5.73;;;;;;;10.09;100.00;100876.47;20984519;28;20639;-65
2021/09/03 05:47:25;;;;;;;5.97;4.87;;;;;;;10.53;100.00;100859.88;20965641;28;20699;-65
2021/09/03 05:57:29;;;;;;;4.87;4.37;;;;;;;10.95;100.00;100838.78;20966110;28;20321;-65
2021/09/03 06:07:31;;;;;;;4.17;3.77;;;;;;;11.43;100.00;100850.22;20973770;28;20397;-64
2021/09/03 06:17:36;;;;;;;3.23;2.93;;;;;;;11.98;100.00;100838.88;20955774;28;20218;-65
2021/09/03 06:27:39;;;;;;;4.50;3.37;;;;;;;12.34;100.00;100825.00;20956512;28;20230;-65
2021/09/03 06:37:44;;;;;;;2.97;2.77;;;;;;;12.88;100.00;100820.59;20950653;28;20230;-69
2021/09/03 06:47:46;;;;;;;2.93;2.53;;;;;;;13.38;100.00;100813.69;20973830;28;20262;-65
2021/09/03 06:57:50;;;;;;;2.80;2.20;;;;;;;13.92;100.00;100804.50;20953702;28;20230;-65
2021/09/03 07:07:54;;;;;;;2.67;2.10;;;;;;;14.46;100.00;100798.88;20970925;28;20636;-65
2021/09/03 07:17:58;;;;;;;2.93;2.00;;;;;;;15.02;100.00;100799.19;20959914;28;20651;-65
2021/09/03 07:28:00;;;;;;;2.50;2.30;;;;;;;15.82;100.00;100792.97;20962637;28;20243;-64
2021/09/03 07:38:04;;;;;;;2.47;2.27;;;;;;;16.58;100.00;100786.81;20974978;28;20641;-66
2021/09/03 07:48:07;;;;;;;2.63;2.20;;;;;;;16.92;100.00;100757.09;20968758;28;20704;-65
2021/09/03 07:58:11;;;;;;;2.40;2.20;;;;;;;17.30;100.00;100761.97;20986739;28;20227;-65
2021/09/03 08:08:14;;;;;;;1.50;1.40;;;;;;;17.71;100.00;100738.69;20962173;28;20230;-66
2021/09/03 08:18:17;;;;;;;3.37;1.70;;;;;;;18.06;97.01;100741.84;20985707;28;20226;-65
2021/09/03 08:28:20;;;;;;;2.13;1.33;;;;;;;18.51;100.00;100738.69;20963119;28;20648;-64
2021/09/03 08:38:23;;;;;;;2.33;1.40;;;;;;;18.52;82.13;100724.19;20981861;28;20667;-66
2021/09/03 08:48:26;;;;;;;2.20;1.60;;;;;;;18.85;85.75;100706.75;20968835;28;20691;-65
2021/09/03 08:58:30;;;;;;;1.33;1.23;;;;;;;19.31;87.38;100700.59;20954508;28;20646;-64
2021/09/03 09:08:34;;;;;;;1.60;1.47;;;;;;;19.27;72.66;100689.19;20975569;28;20230;-65
2021/09/03 09:18:49;;;;;;;1.47;1.37;;;;;;;19.41;65.49;100658.97;20962833;28;20726;-64
2021/09/03 09:28:51;;;;;;;1.67;1.17;;;;;;;19.54;77.01;100687.59;20979912;28;20866;-65
2021/09/03 09:38:55;;;;;;;1.57;1.47;;;;;;;19.65;72.49;100644.09;20955967;28;20313;-67
2021/09/03 09:49:04;;;;;;;1.63;1.53;;;;;;;19.95;72.64;100640.22;20978273;28;20638;-64
2021/09/03 09:59:09;;;;;;;2.43;2.20;;;;;;;20.09;66.35;100637.03;20953945;28;20475;-65
2021/09/03 10:09:13;;;;;;;2.40;2.10;;;;;;;20.43;71.36;100613.69;20976012;28;20730;-65
2021/09/03 10:19:23;;;;;;;4.40;2.93;;;;;;;20.47;69.23;100608.81;20960156;28;20626;-65
2021/09/03 10:29:28;;;;;;;3.10;2.80;;;;;;;20.50;69.12;100603.09;20968771;28;20230;-65
2021/09/03 10:39:42;;;;;;;2.90;2.70;;;;;;;20.81;72.44;100579.09;20966128;28;20609;-64
2021/09/03 10:49:44;;;;;;;4.83;2.80;;;;;;;21.03;73.66;100567.72;20960237;28;20603;-65
2021/09/03 11:00:16;;;;;;;3.13;2.83;;;;;;;21.29;68.34;100542.47;20974373;28;20325;-64
2021/09/03 11:10:19;;;;;;;4.17;2.80;;;;;;;21.50;71.55;100553.75;20955731;28;20242;-65
2021/09/03 11:20:23;;;;;;;6.00;2.87;;;;;;;21.71;69.57;100535.19;20990127;28;20718;-65
2021/09/03 11:30:26;;;;;;;3.43;3.13;;;;;;;21.76;68.20;100530.09;20965434;28;20703;-65
2021/09/03 11:40:32;;;;;;;3.43;3.13;;;;;;;21.81;70.28;100519.59;20988321;28;20221;-64
2021/09/03 11:50:36;;;;;;;3.30;2.70;;;;;;;22.05;69.83;100516.09;20968029;28;20233;-64
2021/09/03 12:00:42;;;;;;;2.90;2.53;;;;;;;22.17;65.21;100497.59;20965191;28;20230;-64
2021/09/03 12:10:54;;;;;;;3.00;2.50;;;;;;;22.47;62.24;100504.22;20974130;28;20779;-64
2021/09/03 12:21:01;;;;;;;5.37;2.47;;;;;;;22.42;62.42;100485.72;20973946;28;20218;-64
2021/09/03 12:31:12;;;;;;;3.07;2.43;;;;;;;22.71;60.45;100446.19;20979246;28;20249;-62
2021/09/03 12:41:19;;;;;;;3.43;2.90;;;;;;;22.46;60.74;100427.22;20964698;28;20226;-62
2021/09/03 12:51:22;;;;;;;5.73;3.27;;;;;;;22.46;64.56;100459.84;20982410;28;20238;-63
2021/09/03 13:01:26;;;;;;;3.60;3.30;;;;;;;22.44;65.89;100442.88;20958310;28;20222;-61
2021/09/03 13:11:29;;;;;;;3.93;3.63;;;;;;;22.50;64.85;100409.53;20981232;28;20234;-62
2021/09/03 13:21:33;;;;;;;4.80;4.30;;;;;;;22.45;66.91;100433.69;20958283;28;20576;-62
2021/09/03 13:31:36;;;;;;;5.33;4.73;;;;;;;22.25;67.07;100416.03;20978015;28;20715;-64
2021/09/03 13:41:43;;;;;;;5.20;4.23;;;;;;;22.27;69.40;100433.88;20963376;28;21018;-65
2021/09/03 13:51:45;;;;;;;8.43;5.20;;;;;;;22.07;68.99;100420.81;20969414;28;20745;-66
2021/09/03 14:01:49;;;;;;;6.13;5.53;;;;;;;21.89;68.40;100424.50;20968969;28;20720;-65
2021/09/03 14:11:52;;;;;;;8.30;6.23;;;;;;;21.80;70.95;100452.69;20970080;28;20769;-65
2021/09/03 14:21:55;;;;;;;8.13;7.07;;;;;;;21.73;70.19;100435.38;21056111;28;20249;-62
2021/09/03 14:31:58;;;;;;;8.07;7.27;;;;;;;21.95;72.44;100436.56;21033240;28;20222;-63
2021/09/03 14:42:01;;;;;;;9.10;6.90;;;;;;;22.00;73.73;100430.66;21052632;28;20256;-63
2021/09/03 14:52:05;;;;;;;8.87;7.57;;;;;;;22.04;74.58;100415.72;21032666;28;20789;-63
2021/09/03 15:02:09;;;;;;;7.60;6.80;;;;;;;21.74;76.36;100430.75;21057844;28;20301;-66
2021/09/03 15:12:12;;;;;;;7.57;6.07;;;;;;;21.50;78.52;100428.84;21039976;28;20230;-62
2021/09/03 15:22:16;;;;;;;7.23;6.40;;;;;;;21.31;78.11;100434.56;21051267;28;20705;-62
2021/09/03 15:32:18;;;;;;;6.90;6.20;;;;;;;21.08;77.82;100435.16;21046265;28;20313;-63
2021/09/03 15:42:22;;;;;;;7.17;6.57;;;;;;;20.90;81.25;100425.38;21042682;28;20261;-63
2021/09/03 15:52:25;;;;;;;6.70;6.07;;;;;;;20.89;83.65;100424.53;21054434;28;20233;-63
2021/09/03 16:02:29;;;;;;;9.57;6.80;;;;;;;20.37;84.99;100418.31;21045878;28;20711;-62
2021/09/03 16:12:31;;;;;;;7.30;6.70;;;;;;;20.14;86.79;100407.97;21051401;28;20227;-64
2021/09/03 16:22:35;;;;;;;9.67;6.83;;;;;;;19.66;91.71;100411.09;21044980;28;20308;-62
2021/09/03 16:32:38;;;;;;;6.80;6.23;;;;;;;19.43;96.30;100415.25;21068174;28;20589;-63
2021/09/03 16:42:41;;;;;;;8.10;7.30;;;;;;;19.08;100.00;100404.34;21024772;28;20246;-64
2021/09/03 16:52:44;;;;;;;7.83;7.13;;;;;;;18.73;100.00;100395.09;21028468;28;20226;-64
2021/09/03 17:02:48;;;;;;;10.37;8.20;;;;;;;18.12;100.00;100384.75;21014719;28;20275;-66
2021/09/03 17:12:50;;;;;;;7.10;6.50;;;;;;;17.92;100.00;100396.56;21052697;28;20743;-67
2021/09/03 17:22:54;;;;;;;7.37;6.10;;;;;;;17.66;100.00;100400.84;20977532;28;20281;-69
2021/09/03 17:32:57;;;;;;;10.37;8.93;;;;;;;17.47;100.00;100418.72;20959115;28;20238;-67
2021/09/03 17:43:01;;;;;;;9.87;8.87;;;;;;;17.21;100.00;100433.72;20986718;28;20258;-74
2021/09/03 17:53:05;;;;;;;8.50;7.70;;;;;;;16.71;100.00;100436.38;20984973;28;20232;-68
2021/09/03 18:03:09;;;;;;;8.33;7.53;;;;;;;16.67;100.00;100445.69;20984079;28;20306;-66
2021/09/03 18:13:12;;;;;;;8.33;7.50;;;;;;;16.38;100.00;100444.66;20977377;28;20231;-67
2021/09/03 18:23:16;;;;;;;8.90;7.30;;;;;;;16.28;100.00;100462.63;20969522;28;20226;-67
2021/09/03 18:33:18;;;;;;;7.30;6.20;;;;;;;16.21;100.00;100457.72;21057937;28;20291;-67
2021/09/03 18:43:22;;;;;;;7.30;6.53;;;;;;;16.11;100.00;100470.28;21036653;28;20222;-67
2021/09/03 18:53:25;;;;;;;7.77;7.07;;;;;;;16.13;100.00;100468.31;21051819;28;20303;-66
2021/09/03 19:03:29;;;;;;;8.00;7.00;;;;;;;16.19;100.00;100462.38;20970145;28;20527;-66
2021/09/03 19:13:31;;;;;;;7.20;6.53;;;;;;;16.13;100.00;100468.31;20944581;28;20235;-64
2021/09/03 19:23:35;;;;;;;8.43;7.53;;;;;;;16.00;100.00;100483.78;20964658;28;20707;-65
2021/09/03 19:33:38;;;;;;;9.37;8.00;;;;;;;15.94;100.00;100487.00;20962931;28;20249;-68
2021/09/03 19:43:41;;;;;;;10.57;8.50;;;;;;;15.79;100.00;100488.28;21000719;28;20299;-65
2021/09/03 19:53:44;;;;;;;8.07;7.37;;;;;;;15.75;100.00;100495.75;21017600;28;20783;-69
2021/09/03 20:13:48;;;;;;;11.33;9.10;;;;;;;15.57;100.00;100509.88;21128467;27;21099;-66
2021/09/03 20:23:50;;;;;;;10.37;9.10;;;;;;;15.73;100.00;100529.16;21128839;27;20709;-67
2021/09/03 20:33:54;;;;;;;9.57;8.67;;;;;;;15.68;100.00;100516.09;21114105;28;20781;-67
2021/09/03 20:43:57;;;;;;;9.67;8.57;;;;;;;15.42;100.00;100525.41;21127561;27;20277;-68
2021/09/03 20:54:00;;;;;;;9.57;8.57;;;;;;;15.21;100.00;100532.50;21137399;27;20225;-67
2021/09/03 21:04:03;;;;;;;11.30;9.03;;;;;;;15.05;100.00;100532.88;21102982;27;20249;-71
2021/09/03 21:14:06;;;;;;;10.93;9.60;;;;;;;14.89;100.00;100527.00;21126638;28;20731;-68
2021/09/03 21:24:09;;;;;;;9.90;8.90;;;;;;;14.68;100.00;100545.66;21047751;28;20251;-68
2021/09/03 21:34:13;;;;;;;13.43;9.30;;;;;;;14.54;100.00;100551.22;21069122;28;20226;-68
2021/09/03 21:44:16;;;;;;;10.67;8.63;;;;;;;14.36;100.00;100557.03;21044939;28;20234;-70
2021/09/03 21:54:19;;;;;;;10.03;9.03;;;;;;;13.84;100.00;100554.69;21064985;28;20242;-68
2021/09/03 22:04:22;;;;;;;11.17;9.53;;;;;;;13.36;100.00;100555.59;21052218;28;20324;-69
2021/09/03 22:14:26;;;;;;;12.37;9.43;;;;;;;12.97;100.00;100560.97;21060106;28;20300;-68
2021/09/03 22:24:28;;;;;;;11.43;9.63;;;;;;;12.49;100.00;100565.22;21058512;28;20725;-71
2021/09/03 22:34:32;;;;;;;10.47;9.37;;;;;;;12.20;100.00;100577.03;21050493;28;20221;-66
2021/09/03 22:44:34;;;;;;;10.23;8.47;;;;;;;11.87;100.00;100575.66;21064676;28;20230;-67
2021/09/03 22:54:38;;;;;;;8.97;8.00;;;;;;;11.55;100.00;100579.53;21040955;28;20230;-67
2021/09/03 23:04:40;;;;;;;8.23;7.30;;;;;;;11.26;100.00;100594.72;21062719;28;20245;-68
2021/09/03 23:14:44;;;;;;;9.47;7.77;;;;;;;11.06;100.00;100598.63;21039662;28;20225;-67
2021/09/03 23:24:47;;;;;;;10.37;8.57;;;;;;;10.89;100.00;100608.63;21060931;28;20257;-67
2021/09/03 23:34:51;;;;;;;10.13;7.40;;;;;;;10.77;100.00;100613.75;21043315;28;20226;-68
2021/09/03 23:44:53;;;;;;;9.33;7.03;;;;;;;10.53;100.00;100619.69;21053473;28;20283;-69
2021/09/03 23:54:57;;;;;;;8.83;6.40;;;;;;;10.25;100.00;100624.00;21049192;28;20234;-70
